Sunday, October 21, 2018, 6:14 AM EDT
Back to Local

KABE, Lehigh Valley International Airport

Location: Allentown, PA, United States Lat: 40.65
Local Time: 6:14 AM EDT (10:14 GMT) Lon: -75.45
Time Zone: US/Eastern Elev: 393 ft

Show me the last for .
Show Decoded

2018-10-21 05:51 METAR KABE 210951Z 31008KT 10SM OVC080 08/03 A2979 RMK AO2 SLP089 T00830028 $ =
2018-10-21 04:51 METAR KABE 210851Z 31009KT 10SM FEW060 FEW080 08/03 A2974 RMK AO2 SLP072
                 T00780028 53021 $ =
2018-10-21 03:51 METAR KABE 210751Z 30005KT 10SM OVC048 08/03 A2971 RMK AO2 SLP062 T00780033 $ =
2018-10-21 02:51 METAR KABE 210651Z 32007KT 10SM SCT021 BKN037 08/04 A2968 RMK AO2 SLP052
                 T00830039 $ =
2018-10-21 02:26 METAR KABE 210626Z 30008KT 10SM SCT021 BKN026 OVC032 09/04 A2969 RMK AO2
                 T00890044 $ =
2018-10-21 01:51 METAR KABE 210551Z AUTO 28006KT 10SM OVC032 09/05 A2968 RMK AO2 SLP051 60006
                 T00890050 10117 20083 55000 $ =
2018-10-21 00:51 METAR KABE 210451Z AUTO 25008KT 10SM FEW026 BKN035 09/05 A2967 RMK AO2 SLP047
                 T00890050 401780083 $ =
2018-10-21 00:20 METAR KABE 210420Z 26004KT 10SM BKN029 BKN120 09/05 A2967 RMK AO2 T00890050 $ =
2018-10-20 23:51 METAR KABE 210351Z 25004KT 10SM FEW070 BKN100 OVC120 09/05 A2967 RMK AO2 RAE17
                 SLP046 P0000 T00890050 $ =
2018-10-20 22:51 METAR KABE 210251Z 27009KT 10SM -RA SCT045 BKN060 OVC075 09/06 A2968 RMK AO2
                 RAB12 SLP051 P0001 60006 T00890056 53021 $ =
2018-10-20 21:51 METAR KABE 210151Z 34004KT 10SM FEW041 SCT070 OVC080 10/06 A2964 RMK AO2
                 RAB23E43 SLP037 P0005 T01000061 $ =
2018-10-20 20:51 METAR KABE 210051Z 00000KT 10SM FEW070 FEW100 11/05 A2962 RMK AO2 SLP032
                 T01060050 $ =
2018-10-20 19:51 METAR KABE 202351Z 24004KT 10SM FEW110 11/04 A2962 RMK AO2 SLP030 T01110044
                 10178 20100 55001 $ =
2018-10-20 18:51 METAR KABE 202251Z 27004KT 10SM CLR 13/04 A2961 RMK AO2 SLP028 T01280039 $ =
2018-10-20 17:51 METAR KABE 202151Z 26007KT 10SM CLR 15/05 A2961 RMK AO2 SLP028 T01500050 $ =
2018-10-20 16:51 METAR KABE 202051Z 27009G16KT 10SM CLR 17/04 A2962 RMK AO2 SLP029 T01670044
                 56021 $ =
2018-10-20 15:51 METAR KABE 201951Z 26015G22KT 10SM FEW055 SCT070 17/05 A2964 RMK AO2 SLP035
                 T01720050 $ =
2018-10-20 14:51 METAR KABE 201851Z AUTO 26011G20KT 10SM BKN075 17/07 A2966 RMK AO2 SLP042
                 T01720067 $ =
2018-10-20 13:51 METAR KABE 201751Z 25018G25KT 10SM BKN039 17/07 A2968 RMK AO2 SLP051 T01670072
                 10172 20122 58025 $ =
2018-10-20 12:51 METAR KABE 201651Z 27009KT 10SM SCT033 BKN042 BKN050 16/08 A2972 RMK AO2 SLP063
                 T01560083 $ =
2018-10-20 12:05 METAR KABE 201605Z 26012G18KT 10SM BKN031 BKN039 15/08 A2974 RMK AO2 T01500083 $
                 =
2018-10-20 11:51 METAR KABE 201551Z 28008G14KT 10SM BKN026 OVC032 14/08 A2974 RMK AO2 SLP072
                 T01440083 $ =
2018-10-20 10:51 METAR KABE 201451Z 27011G16KT 10SM BKN026 OVC032 14/08 A2976 RMK AO2 SLP077
                 T01440083 56001 $ =
2018-10-20 10:49 METAR KABE 201449Z 27011G21KT 10SM SCT024 OVC032 14/08 A2976 RMK AO2 $ =
2018-10-20 10:10 METAR KABE 201410Z 26012G18KT 10SM SCT015 BKN022 14/10 A2976 RMK AO2 T01440100 =
2018-10-20 09:51 METAR KABE 201351Z 24007KT 10SM FEW013 SCT075 14/11 A2976 RMK AO2 SLP078
                 T01440106 =
2018-10-20 08:51 METAR KABE 201251Z 22006KT 7SM BKN040 OVC070 12/10 A2976 RMK AO2 SLP078
                 T01220100 =
2018-10-20 07:51 METAR KABE 201151Z 25004KT 7SM OVC035 12/10 A2977 RMK AO2 SLP080 60003 70004
                 T01220100 10122 20111 53007 =
2018-10-20 07:03 METAR KABE 201103Z 24005KT 10SM SCT013 OVC036 12/09 A2976 RMK AO2 T01170094 =
2018-10-20 06:51 METAR KABE 201051Z 23004KT 10SM BKN013 BKN031 OVC039 12/09 A2976 RMK AO2 SLP077
                 T01170094 =
2018-10-20 06:46 METAR KABE 201046Z 25003KT 10SM BKN013 OVC039 12/09 A2976 RMK AO2 =

Support USWX by starting your Amazon purchase here.